sensor_id;sensor_type;location;lat;lon;timestamp;temperature;humidity
12870;DHT22;6503;48.572;13.460;2023-02-08T01:15:46;-5.10;99.90
12870;DHT22;6503;48.572;13.460;2023-02-08T01:18:17;-5.10;99.90
12870;DHT22;6503;48.572;13.460;2023-02-08T01:20:49;-5.20;99.90
12870;DHT22;6503;48.572;13.460;2023-02-08T01:23:26;-5.20;99.90
12870;DHT22;6503;48.572;13.460;2023-02-08T01:29:38;-5.20;99.90
12870;DHT22;6503;48.572;13.460;2023-02-08T01:46:09;-5.30;99.90
12870;DHT22;6503;48.572;13.460;2023-02-08T01:48:43;-5.30;99.90
12870;DHT22;6503;48.572;13.460;2023-02-08T01:51:16;-5.30;99.90
12870;DHT22;6503;48.572;13.460;2023-02-08T01:53:50;-5.30;99.90
12870;DHT22;6503;48.572;13.460;2023-02-08T01:56:24;-5.20;99.90
12870;DHT22;6503;48.572;13.460;2023-02-08T01:58:55;-5.30;99.90
12870;DHT22;6503;48.572;13.460;2023-02-08T02:01:41;-5.30;99.90
12870;DHT22;6503;48.572;13.460;2023-02-08T02:04:12;-5.30;99.90
12870;DHT22;6503;48.572;13.460;2023-02-08T02:06:54;-5.40;99.90
12870;DHT22;6503;48.572;13.460;2023-02-08T02:09:30;-5.40;99.90
12870;DHT22;6503;48.572;13.460;2023-02-08T02:12:16;-5.40;99.90
12870;DHT22;6503;48.572;13.460;2023-02-08T02:14:50;-5.50;99.90
12870;DHT22;6503;48.572;13.460;2023-02-08T02:17:22;-5.40;99.90
12870;DHT22;6503;48.572;13.460;2023-02-08T02:20:01;-5.40;99.90
12870;DHT22;6503;48.572;13.460;2023-02-08T02:22:53;-5.40;99.90
12870;DHT22;6503;48.572;13.460;2023-02-08T02:28:42;-5.50;99.90
12870;DHT22;6503;48.572;13.460;2023-02-08T02:34:33;-5.50;99.90
12870;DHT22;6503;48.572;13.460;2023-02-08T02:37:12;-5.50;99.90
12870;DHT22;6503;48.572;13.460;2023-02-08T02:39:59;-5.50;99.90
12870;DHT22;6503;48.572;13.460;2023-02-08T02:42:39;-5.50;99.90
12870;DHT22;6503;48.572;13.460;2023-02-08T02:45:31;-5.50;99.90
12870;DHT22;6503;48.572;13.460;2023-02-08T02:48:02;-5.60;99.90
12870;DHT22;6503;48.572;13.460;2023-02-08T02:50:40;-5.60;99.90
12870;DHT22;6503;48.572;13.460;2023-02-08T02:53:20;-5.60;99.90
12870;DHT22;6503;48.572;13.460;2023-02-08T02:55:55;-5.60;99.90
12870;DHT22;6503;48.572;13.460;2023-02-08T02:58:32;-5.60;99.90
12870;DHT22;6503;48.572;13.460;2023-02-08T03:01:10;-5.70;99.90
12870;DHT22;6503;48.572;13.460;2023-02-08T03:03:43;-5.70;99.90
12870;DHT22;6503;48.572;13.460;2023-02-08T03:06:27;-5.70;99.90
12870;DHT22;6503;48.572;13.460;2023-02-08T03:09:20;-5.70;99.90
12870;DHT22;6503;48.572;13.460;2023-02-08T03:11:59;-5.70;99.90
12870;DHT22;6503;48.572;13.460;2023-02-08T03:14:50;-5.80;99.90
12870;DHT22;6503;48.572;13.460;2023-02-08T03:17:32;-5.80;99.90
12870;DHT22;6503;48.572;13.460;2023-02-08T03:20:07;-5.80;99.90
12870;DHT22;6503;48.572;13.460;2023-02-08T03:22:54;-5.90;99.90
12870;DHT22;6503;48.572;13.460;2023-02-08T03:25:32;-5.80;99.90
12870;DHT22;6503;48.572;13.460;2023-02-08T03:28:10;-5.70;99.90
12870;DHT22;6503;48.572;13.460;2023-02-08T03:30:57;-5.80;99.90
12870;DHT22;6503;48.572;13.460;2023-02-08T03:33:47;-5.80;99.90
12870;DHT22;6503;48.572;13.460;2023-02-08T03:36:22;-5.90;99.90
12870;DHT22;6503;48.572;13.460;2023-02-08T03:39:13;-5.90;99.90
12870;DHT22;6503;48.572;13.460;2023-02-08T03:41:46;-6.00;99.90
12870;DHT22;6503;48.572;13.460;2023-02-08T03:44:24;-6.00;99.90
12870;DHT22;6503;48.572;13.460;2023-02-08T03:46:56;-6.00;99.90
12870;DHT22;6503;48.572;13.460;2023-02-08T03:49:29;-6.00;99.90
12870;DHT22;6503;48.572;13.460;2023-02-08T03:52:00;-6.00;99.90
12870;DHT22;6503;48.572;13.460;2023-02-08T03:54:45;-5.90;99.90
12870;DHT22;6503;48.572;13.460;2023-02-08T03:57:19;-5.90;99.90
12870;DHT22;6503;48.572;13.460;2023-02-08T03:59:55;-5.90;99.90
12870;DHT22;6503;48.572;13.460;2023-02-08T04:02:27;-6.00;99.90
12870;DHT22;6503;48.572;13.460;2023-02-08T04:05:06;-5.90;99.90
12870;DHT22;6503;48.572;13.460;2023-02-08T04:07:39;-6.00;99.90
12870;DHT22;6503;48.572;13.460;2023-02-08T04:10:15;-6.00;99.90
12870;DHT22;6503;48.572;13.460;2023-02-08T04:12:52;-6.00;99.90
12870;DHT22;6503;48.572;13.460;2023-02-08T04:15:28;-6.10;99.90
12870;DHT22;6503;48.572;13.460;2023-02-08T04:17:55;-6.10;99.90
12870;DHT22;6503;48.572;13.460;2023-02-08T04:20:25;-6.20;99.90
12870;DHT22;6503;48.572;13.460;2023-02-08T04:23:13;-6.10;99.90
12870;DHT22;6503;48.572;13.460;2023-02-08T04:26:00;-6.20;99.90
12870;DHT22;6503;48.572;13.460;2023-02-08T04:28:32;-6.20;99.90
12870;DHT22;6503;48.572;13.460;2023-02-08T04:31:01;-6.10;99.90
12870;DHT22;6503;48.572;13.460;2023-02-08T04:33:38;-6.20;99.90
12870;DHT22;6503;48.572;13.460;2023-02-08T04:36:07;-6.20;99.90
12870;DHT22;6503;48.572;13.460;2023-02-08T04:38:40;-6.20;99.90
12870;DHT22;6503;48.572;13.460;2023-02-08T04:41:25;-6.20;99.90
12870;DHT22;6503;48.572;13.460;2023-02-08T04:44:07;-6.20;99.90
12870;DHT22;6503;48.572;13.460;2023-02-08T04:46:37;-6.20;99.90
12870;DHT22;6503;48.572;13.460;2023-02-08T04:49:07;-6.20;99.90
12870;DHT22;6503;48.572;13.460;2023-02-08T04:51:41;-6.20;99.90
12870;DHT22;6503;48.572;13.460;2023-02-08T04:54:23;-6.20;99.90
12870;DHT22;6503;48.572;13.460;2023-02-08T04:57:00;-6.20;99.90
12870;DHT22;6503;48.572;13.460;2023-02-08T04:59:29;-6.30;99.90
12870;DHT22;6503;48.572;13.460;2023-02-08T05:02:05;-6.30;99.90
12870;DHT22;6503;48.572;13.460;2023-02-08T05:04:45;-6.30;99.90
12870;DHT22;6503;48.572;13.460;2023-02-08T05:07:22;-6.30;99.90
12870;DHT22;6503;48.572;13.460;2023-02-08T05:09:53;-6.30;99.90
12870;DHT22;6503;48.572;13.460;2023-02-08T05:16:03;-6.30;99.90
12870;DHT22;6503;48.572;13.460;2023-02-08T05:18:57;-6.30;99.90
12870;DHT22;6503;48.572;13.460;2023-02-08T05:21:53;-6.30;99.90
12870;DHT22;6503;48.572;13.460;2023-02-08T05:24:29;-6.30;99.90
12870;DHT22;6503;48.572;13.460;2023-02-08T05:27:15;-6.30;99.90
12870;DHT22;6503;48.572;13.460;2023-02-08T05:29:53;-6.20;99.90
12870;DHT22;6503;48.572;13.460;2023-02-08T05:32:30;-6.20;99.90
12870;DHT22;6503;48.572;13.460;2023-02-08T05:35:15;-6.20;99.90
12870;DHT22;6503;48.572;13.460;2023-02-08T05:37:46;-6.30;99.90
12870;DHT22;6503;48.572;13.460;2023-02-08T05:40:26;-6.30;99.90
12870;DHT22;6503;48.572;13.460;2023-02-08T05:43:08;-6.20;99.90
12870;DHT22;6503;48.572;13.460;2023-02-08T05:45:59;-6.30;99.90
12870;DHT22;6503;48.572;13.460;2023-02-08T05:48:38;-6.30;99.90
12870;DHT22;6503;48.572;13.460;2023-02-08T05:51:20;-6.30;99.90
12870;DHT22;6503;48.572;13.460;2023-02-08T05:53:57;-6.40;99.90
12870;DHT22;6503;48.572;13.460;2023-02-08T05:56:31;-6.40;99.90
12870;DHT22;6503;48.572;13.460;2023-02-08T05:59:00;-6.30;99.90
12870;DHT22;6503;48.572;13.460;2023-02-08T06:01:52;-5.90;99.90
12870;DHT22;6503;48.572;13.460;2023-02-08T06:04:29;-6.30;99.90
12870;DHT22;6503;48.572;13.460;2023-02-08T06:07:00;-6.30;99.90
12870;DHT22;6503;48.572;13.460;2023-02-08T06:09:46;-6.20;99.90
12870;DHT22;6503;48.572;13.460;2023-02-08T06:12:31;-6.20;99.90
12870;DHT22;6503;48.572;13.460;2023-02-08T06:15:17;-6.20;99.90
12870;DHT22;6503;48.572;13.460;2023-02-08T06:18:05;-6.20;99.90
12870;DHT22;6503;48.572;13.460;2023-02-08T06:23:49;-6.10;99.90
12870;DHT22;6503;48.572;13.460;2023-02-08T06:26:43;-6.10;99.90
12870;DHT22;6503;48.572;13.460;2023-02-08T06:29:16;-6.10;99.90
12870;DHT22;6503;48.572;13.460;2023-02-08T06:31:57;-6.00;99.90
12870;DHT22;6503;48.572;13.460;2023-02-08T06:34:27;-6.10;99.90
12870;DHT22;6503;48.572;13.460;2023-02-08T06:37:01;-6.10;99.90
12870;DHT22;6503;48.572;13.460;2023-02-08T06:43:42;-6.10;99.90
12870;DHT22;6503;48.572;13.460;2023-02-08T06:46:11;-5.80;99.90
12870;DHT22;6503;48.572;13.460;2023-02-08T06:48:43;-6.10;99.90
12870;DHT22;6503;48.572;13.460;2023-02-08T06:51:21;-6.00;99.90
12870;DHT22;6503;48.572;13.460;2023-02-08T06:53:48;-5.10;99.90
12870;DHT22;6503;48.572;13.460;2023-02-08T06:56:16;-5.10;99.90
12870;DHT22;6503;48.572;13.460;2023-02-08T06:58:51;-5.70;99.90
12870;DHT22;6503;48.572;13.460;2023-02-08T07:01:42;-5.30;99.90
12870;DHT22;6503;48.572;13.460;2023-02-08T07:04:11;-5.70;99.90
12870;DHT22;6503;48.572;13.460;2023-02-08T07:06:41;-5.50;99.90
12870;DHT22;6503;48.572;13.460;2023-02-08T07:09:10;-5.40;99.90
12870;DHT22;6503;48.572;13.460;2023-02-08T07:11:43;-5.30;99.90
12870;DHT22;6503;48.572;13.460;2023-02-08T07:14:15;-5.10;99.90
12870;DHT22;6503;48.572;13.460;2023-02-08T07:16:46;-4.90;99.90
12870;DHT22;6503;48.572;13.460;2023-02-08T07:19:16;-4.90;99.90
12870;DHT22;6503;48.572;13.460;2023-02-08T07:21:55;-4.80;99.90
12870;DHT22;6503;48.572;13.460;2023-02-08T07:24:27;-4.70;99.90
12870;DHT22;6503;48.572;13.460;2023-02-08T07:26:56;-4.70;99.90
12870;DHT22;6503;48.572;13.460;2023-02-08T07:29:25;-4.60;99.90
12870;DHT22;6503;48.572;13.460;2023-02-08T07:31:56;-4.50;99.90
12870;DHT22;6503;48.572;13.460;2023-02-08T07:34:24;-4.50;99.90
12870;DHT22;6503;48.572;13.460;2023-02-08T07:36:59;-4.30;99.90
12870;DHT22;6503;48.572;13.460;2023-02-08T07:39:29;-4.30;99.90
12870;DHT22;6503;48.572;13.460;2023-02-08T07:41:58;-4.20;99.90
12870;DHT22;6503;48.572;13.460;2023-02-08T07:44:28;-4.20;99.90
12870;DHT22;6503;48.572;13.460;2023-02-08T07:46:59;-4.20;99.90
12870;DHT22;6503;48.572;13.460;2023-02-08T07:49:27;-4.00;99.90
12870;DHT22;6503;48.572;13.460;2023-02-08T07:52:08;-3.90;99.90
12870;DHT22;6503;48.572;13.460;2023-02-08T07:54:37;-3.80;99.90
12870;DHT22;6503;48.572;13.460;2023-02-08T07:57:05;-3.70;99.90
12870;DHT22;6503;48.572;13.460;2023-02-08T07:59:34;-3.60;99.90
12870;DHT22;6503;48.572;13.460;2023-02-08T08:02:03;-3.60;99.90
12870;DHT22;6503;48.572;13.460;2023-02-08T08:04:30;-3.60;99.90
12870;DHT22;6503;48.572;13.460;2023-02-08T08:06:59;-3.50;99.90
12870;DHT22;6503;48.572;13.460;2023-02-08T08:09:26;-3.40;99.90
12870;DHT22;6503;48.572;13.460;2023-02-08T08:11:53;-3.50;99.90
12870;DHT22;6503;48.572;13.460;2023-02-08T08:14:23;-3.40;99.90
12870;DHT22;6503;48.572;13.460;2023-02-08T08:16:55;-3.30;99.90
12870;DHT22;6503;48.572;13.460;2023-02-08T08:19:24;-3.20;99.90
12870;DHT22;6503;48.572;13.460;2023-02-08T08:21:53;-3.10;99.90
12870;DHT22;6503;48.572;13.460;2023-02-08T08:24:31;-3.00;99.90
12870;DHT22;6503;48.572;13.460;2023-02-08T08:27:18;-3.00;99.90
12870;DHT22;6503;48.572;13.460;2023-02-08T08:29:54;-3.00;99.90
12870;DHT22;6503;48.572;13.460;2023-02-08T08:32:26;-2.90;99.90
12870;DHT22;6503;48.572;13.460;2023-02-08T08:34:53;-2.70;99.90
12870;DHT22;6503;48.572;13.460;2023-02-08T08:37:20;-2.70;99.90
12870;DHT22;6503;48.572;13.460;2023-02-08T08:39:53;-2.60;99.90
12870;DHT22;6503;48.572;13.460;2023-02-08T08:42:23;-2.60;99.90
12870;DHT22;6503;48.572;13.460;2023-02-08T08:44:53;-2.60;99.90
12870;DHT22;6503;48.572;13.460;2023-02-08T08:47:24;-2.40;99.90
12870;DHT22;6503;48.572;13.460;2023-02-08T08:49:55;-2.40;99.90
12870;DHT22;6503;48.572;13.460;2023-02-08T08:52:39;-2.30;99.90
12870;DHT22;6503;48.572;13.460;2023-02-08T08:55:07;-2.20;99.90
12870;DHT22;6503;48.572;13.460;2023-02-08T08:57:38;-2.30;99.90
12870;DHT22;6503;48.572;13.460;2023-02-08T09:00:11;-2.30;99.90
12870;DHT22;6503;48.572;13.460;2023-02-08T09:02:39;-2.20;99.90
12870;DHT22;6503;48.572;13.460;2023-02-08T09:05:10;-2.10;99.90
12870;DHT22;6503;48.572;13.460;2023-02-08T09:07:39;-2.00;99.90
12870;DHT22;6503;48.572;13.460;2023-02-08T09:10:12;-1.90;99.90
12870;DHT22;6503;48.572;13.460;2023-02-08T09:12:39;-1.80;99.90
12870;DHT22;6503;48.572;13.460;2023-02-08T09:15:07;-1.80;99.90
12870;DHT22;6503;48.572;13.460;2023-02-08T09:17:44;-1.70;99.90
12870;DHT22;6503;48.572;13.460;2023-02-08T09:20:17;-1.70;99.90
12870;DHT22;6503;48.572;13.460;2023-02-08T09:22:48;-1.80;99.90
12870;DHT22;6503;48.572;13.460;2023-02-08T09:25:19;-1.60;99.90
12870;DHT22;6503;48.572;13.460;2023-02-08T09:27:52;-1.50;99.90
12870;DHT22;6503;48.572;13.460;2023-02-08T09:30:22;-1.30;99.90
12870;DHT22;6503;48.572;13.460;2023-02-08T09:33:23;-1.10;99.90
12870;DHT22;6503;48.572;13.460;2023-02-08T09:36:47;-0.90;99.90
12870;DHT22;6503;48.572;13.460;2023-02-08T09:39:23;-1.00;99.90
12870;DHT22;6503;48.572;13.460;2023-02-08T09:42:18;-0.90;99.90
12870;DHT22;6503;48.572;13.460;2023-02-08T09:47:45;-0.70;99.90
12870;DHT22;6503;48.572;13.460;2023-02-08T09:50:23;-0.60;99.90
12870;DHT22;6503;48.572;13.460;2023-02-08T09:53:18;-0.40;99.90
12870;DHT22;6503;48.572;13.460;2023-02-08T09:55:49;-0.60;99.90
12870;DHT22;6503;48.572;13.460;2023-02-08T09:58:23;-0.50;99.90
12870;DHT22;6503;48.572;13.460;2023-02-08T10:01:00;0.00;99.90
12870;DHT22;6503;48.572;13.460;2023-02-08T10:03:36;-0.30;99.90
12870;DHT22;6503;48.572;13.460;2023-02-08T10:06:06;-0.20;99.90
12870;DHT22;6503;48.572;13.460;2023-02-08T10:08:39;-0.10;99.90
12870;DHT22;6503;48.572;13.460;2023-02-08T10:11:46;0.00;99.80
12870;DHT22;6503;48.572;13.460;2023-02-08T10:17:26;0.20;99.90
12870;DHT22;6503;48.572;13.460;2023-02-08T10:20:01;0.50;99.00
12870;DHT22;6503;48.572;13.460;2023-02-08T10:25:54;0.40;96.10
12870;DHT22;6503;48.572;13.460;2023-02-08T10:29:00;0.60;93.80
12870;DHT22;6503;48.572;13.460;2023-02-08T10:31:46;0.60;89.80
12870;DHT22;6503;48.572;13.460;2023-02-08T10:34:28;0.70;86.20
12870;DHT22;6503;48.572;13.460;2023-02-08T10:37:09;0.80;81.30
12870;DHT22;6503;48.572;13.460;2023-02-08T10:39:42;0.90;81.20
12870;DHT22;6503;48.572;13.460;2023-02-08T10:42:47;1.20;75.10
12870;DHT22;6503;48.572;13.460;2023-02-08T10:45:44;0.90;73.60
12870;DHT22;6503;48.572;13.460;2023-02-08T10:48:21;1.00;73.80
12870;DHT22;6503;48.572;13.460;2023-02-08T10:50:56;1.10;73.70
12870;DHT22;6503;48.572;13.460;2023-02-08T10:53:24;1.00;66.70
12870;DHT22;6503;48.572;13.460;2023-02-08T10:55:51;1.60;70.00
12870;DHT22;6503;48.572;13.460;2023-02-08T10:58:29;2.20;64.50
12870;DHT22;6503;48.572;13.460;2023-02-08T11:00:57;1.40;62.50
12870;DHT22;6503;48.572;13.460;2023-02-08T11:03:28;1.60;60.20
12870;DHT22;6503;48.572;13.460;2023-02-08T11:05:58;1.50;58.40
12870;DHT22;6503;48.572;13.460;2023-02-08T11:08:27;2.30;56.30
12870;DHT22;6503;48.572;13.460;2023-02-08T11:10:57;2.10;55.00
12870;DHT22;6503;48.572;13.460;2023-02-08T11:13:39;1.90;59.50
12870;DHT22;6503;48.572;13.460;2023-02-08T11:16:23;2.00;57.40
12870;DHT22;6503;48.572;13.460;2023-02-08T11:19:00;1.90;51.60
12870;DHT22;6503;48.572;13.460;2023-02-08T11:21:48;2.70;46.50
12870;DHT22;6503;48.572;13.460;2023-02-08T11:24:38;2.00;48.70
12870;DHT22;6503;48.572;13.460;2023-02-08T11:27:29;2.20;48.40
12870;DHT22;6503;48.572;13.460;2023-02-08T11:33:40;2.30;46.60
12870;DHT22;6503;48.572;13.460;2023-02-08T11:36:27;2.40;45.20
12870;DHT22;6503;48.572;13.460;2023-02-08T11:38:55;2.40;41.60
12870;DHT22;6503;48.572;13.460;2023-02-08T11:41:48;2.50;40.50
12870;DHT22;6503;48.572;13.460;2023-02-08T11:47:33;2.80;44.50
12870;DHT22;6503;48.572;13.460;2023-02-08T11:50:16;2.90;40.40
12870;DHT22;6503;48.572;13.460;2023-02-08T11:53:03;3.00;34.20
12870;DHT22;6503;48.572;13.460;2023-02-08T11:59:17;3.00;33.50
12870;DHT22;6503;48.572;13.460;2023-02-08T12:01:48;3.20;36.30
12870;DHT22;6503;48.572;13.460;2023-02-08T12:04:18;3.30;33.90
12870;DHT22;6503;48.572;13.460;2023-02-08T12:13:54;3.40;30.50
12870;DHT22;6503;48.572;13.460;2023-02-08T12:16:45;3.60;32.20
12870;DHT22;6503;48.572;13.460;2023-02-08T12:19:35;3.70;31.60
12870;DHT22;6503;48.572;13.460;2023-02-08T12:22:16;3.90;31.60
12870;DHT22;6503;48.572;13.460;2023-02-08T12:24:50;4.20;31.40
12870;DHT22;6503;48.572;13.460;2023-02-08T12:27:31;4.30;30.60
12870;DHT22;6503;48.572;13.460;2023-02-08T12:30:11;3.90;29.10
12870;DHT22;6503;48.572;13.460;2023-02-08T12:33:05;3.90;29.10
12870;DHT22;6503;48.572;13.460;2023-02-08T12:35:46;3.80;28.80
12870;DHT22;6503;48.572;13.460;2023-02-08T12:38:23;3.80;27.90
12870;DHT22;6503;48.572;13.460;2023-02-08T12:41:15;4.00;28.20
12870;DHT22;6503;48.572;13.460;2023-02-08T12:43:50;4.30;29.20
12870;DHT22;6503;48.572;13.460;2023-02-08T12:46:46;4.40;28.30
12870;DHT22;6503;48.572;13.460;2023-02-08T12:49:40;4.50;27.30
12870;DHT22;6503;48.572;13.460;2023-02-08T12:52:29;4.60;28.60
12870;DHT22;6503;48.572;13.460;2023-02-08T12:55:00;4.90;28.40
12870;DHT22;6503;48.572;13.460;2023-02-08T12:57:30;4.80;28.10
12870;DHT22;6503;48.572;13.460;2023-02-08T13:00:03;5.10;27.80
12870;DHT22;6503;48.572;13.460;2023-02-08T13:02:45;5.00;28.30
12870;DHT22;6503;48.572;13.460;2023-02-08T13:05:23;5.20;26.90
12870;DHT22;6503;48.572;13.460;2023-02-08T13:07:57;5.10;25.70
12870;DHT22;6503;48.572;13.460;2023-02-08T13:10:32;5.00;25.30
12870;DHT22;6503;48.572;13.460;2023-02-08T13:13:05;5.00;25.60
12870;DHT22;6503;48.572;13.460;2023-02-08T13:15:38;5.00;25.50
12870;DHT22;6503;48.572;13.460;2023-02-08T13:18:13;5.00;25.40
12870;DHT22;6503;48.572;13.460;2023-02-08T13:20:44;5.00;25.10
12870;DHT22;6503;48.572;13.460;2023-02-08T13:23:20;5.10;25.50
12870;DHT22;6503;48.572;13.460;2023-02-08T13:25:54;5.10;25.10
12870;DHT22;6503;48.572;13.460;2023-02-08T13:28:24;5.10;25.50
12870;DHT22;6503;48.572;13.460;2023-02-08T13:31:01;5.20;24.60
12870;DHT22;6503;48.572;13.460;2023-02-08T13:33:36;5.10;25.50
12870;DHT22;6503;48.572;13.460;2023-02-08T13:36:10;5.20;25.20
12870;DHT22;6503;48.572;13.460;2023-02-08T13:38:46;5.20;24.80
12870;DHT22;6503;48.572;13.460;2023-02-08T13:41:22;5.20;25.60
12870;DHT22;6503;48.572;13.460;2023-02-08T13:44:04;5.20;24.90
12870;DHT22;6503;48.572;13.460;2023-02-08T13:46:39;5.10;24.20
12870;DHT22;6503;48.572;13.460;2023-02-08T13:49:56;4.90;25.30
12870;DHT22;6503;48.572;13.460;2023-02-08T13:52:50;4.30;24.80
12870;DHT22;6503;48.572;13.460;2023-02-08T14:08:45;3.60;30.00
12870;DHT22;6503;48.572;13.460;2023-02-08T14:11:43;3.70;32.20
12870;DHT22;6503;48.572;13.460;2023-02-08T14:15:16;3.60;32.40
12870;DHT22;6503;48.572;13.460;2023-02-08T14:21:37;3.50;31.60
12870;DHT22;6503;48.572;13.460;2023-02-08T14:24:27;3.30;32.00
12870;DHT22;6503;48.572;13.460;2023-02-08T14:27:24;3.50;37.00
12870;DHT22;6503;48.572;13.460;2023-02-08T14:30:05;3.40;36.40
12870;DHT22;6503;48.572;13.460;2023-02-08T14:33:11;3.10;37.20
12870;DHT22;6503;48.572;13.460;2023-02-08T14:36:29;2.80;39.60
12870;DHT22;6503;48.572;13.460;2023-02-08T14:42:00;2.90;43.70
12870;DHT22;6503;48.572;13.460;2023-02-08T14:47:56;2.80;42.50
12870;DHT22;6503;48.572;13.460;2023-02-08T14:50:41;2.70;47.40
12870;DHT22;6503;48.572;13.460;2023-02-08T14:53:24;2.60;48.50
12870;DHT22;6503;48.572;13.460;2023-02-08T14:55:57;2.70;48.00
12870;DHT22;6503;48.572;13.460;2023-02-08T14:58:29;3.00;48.80
12870;DHT22;6503;48.572;13.460;2023-02-08T15:01:00;2.60;50.00
12870;DHT22;6503;48.572;13.460;2023-02-08T15:03:30;2.50;50.30
12870;DHT22;6503;48.572;13.460;2023-02-08T15:09:23;2.40;46.00
12870;DHT22;6503;48.572;13.460;2023-02-08T15:11:59;2.40;49.30
12870;DHT22;6503;48.572;13.460;2023-02-08T15:14:34;2.30;50.40
12870;DHT22;6503;48.572;13.460;2023-02-08T15:17:02;2.30;54.00
12870;DHT22;6503;48.572;13.460;2023-02-08T15:19:31;2.30;54.80
12870;DHT22;6503;48.572;13.460;2023-02-08T15:24:49;2.20;57.60
12870;DHT22;6503;48.572;13.460;2023-02-08T15:27:23;2.20;53.40
12870;DHT22;6503;48.572;13.460;2023-02-08T15:29:52;2.10;53.00
12870;DHT22;6503;48.572;13.460;2023-02-08T15:32:25;2.10;56.80
12870;DHT22;6503;48.572;13.460;2023-02-08T15:34:55;2.10;58.00
12870;DHT22;6503;48.572;13.460;2023-02-08T15:37:25;2.00;54.80
12870;DHT22;6503;48.572;13.460;2023-02-08T15:39:56;2.00;56.50
12870;DHT22;6503;48.572;13.460;2023-02-08T15:42:26;2.00;62.20
12870;DHT22;6503;48.572;13.460;2023-02-08T15:44:56;1.90;57.70
12870;DHT22;6503;48.572;13.460;2023-02-08T15:47:28;1.90;58.90
12870;DHT22;6503;48.572;13.460;2023-02-08T15:49:57;1.90;58.80
12870;DHT22;6503;48.572;13.460;2023-02-08T15:52:27;2.60;63.50
12870;DHT22;6503;48.572;13.460;2023-02-08T15:54:55;1.80;61.40
12870;DHT22;6503;48.572;13.460;2023-02-08T15:57:35;1.80;63.40
12870;DHT22;6503;48.572;13.460;2023-02-08T16:00:13;1.70;62.10
12870;DHT22;6503;48.572;13.460;2023-02-08T16:02:48;1.70;63.00
12870;DHT22;6503;48.572;13.460;2023-02-08T16:05:21;1.60;67.60
12870;DHT22;6503;48.572;13.460;2023-02-08T16:07:54;1.60;67.40
12870;DHT22;6503;48.572;13.460;2023-02-08T16:10:24;1.60;66.40
12870;DHT22;6503;48.572;13.460;2023-02-08T16:13:01;1.50;67.40
12870;DHT22;6503;48.572;13.460;2023-02-08T16:15:39;1.40;74.00
12870;DHT22;6503;48.572;13.460;2023-02-08T16:18:37;1.40;73.60
12870;DHT22;6503;48.572;13.460;2023-02-08T16:21:20;1.30;73.30
12870;DHT22;6503;48.572;13.460;2023-02-08T16:23:58;1.40;78.30
12870;DHT22;6503;48.572;13.460;2023-02-08T16:26:52;1.40;75.90
12870;DHT22;6503;48.572;13.460;2023-02-08T16:29:26;1.50;83.70
12870;DHT22;6503;48.572;13.460;2023-02-08T16:32:27;1.40;82.60
12870;DHT22;6503;48.572;13.460;2023-02-08T16:35:10;1.30;84.90
12870;DHT22;6503;48.572;13.460;2023-02-08T16:37:44;1.20;94.10
12870;DHT22;6503;48.572;13.460;2023-02-08T16:40:39;1.20;94.30
12870;DHT22;6503;48.572;13.460;2023-02-08T16:43:20;1.20;96.10
12870;DHT22;6503;48.572;13.460;2023-02-08T16:46:18;1.20;97.00
12870;DHT22;6503;48.572;13.460;2023-02-08T16:49:04;1.20;91.60
12870;DHT22;6503;48.572;13.460;2023-02-08T16:51:36;1.10;92.70
12870;DHT22;6503;48.572;13.460;2023-02-08T16:54:28;1.10;91.40
12870;DHT22;6503;48.572;13.460;2023-02-08T16:57:36;1.10;89.50
12870;DHT22;6503;48.572;13.460;2023-02-08T17:00:30;1.90;90.80
12870;DHT22;6503;48.572;13.460;2023-02-08T17:03:20;2.20;95.20
12870;DHT22;6503;48.572;13.460;2023-02-08T17:05:58;2.10;93.70
12870;DHT22;6503;48.572;13.460;2023-02-08T17:08:32;2.00;94.50
12870;DHT22;6503;48.572;13.460;2023-02-08T17:11:08;0.90;97.00
12870;DHT22;6503;48.572;13.460;2023-02-08T17:13:56;0.80;98.10
12870;DHT22;6503;48.572;13.460;2023-02-08T17:16:49;0.80;99.90
12870;DHT22;6503;48.572;13.460;2023-02-08T17:19:55;0.70;93.20
12870;DHT22;6503;48.572;13.460;2023-02-08T17:22:42;0.70;92.40
12870;DHT22;6503;48.572;13.460;2023-02-08T17:25:34;0.60;92.40
12870;DHT22;6503;48.572;13.460;2023-02-08T17:28:10;0.60;91.90
12870;DHT22;6503;48.572;13.460;2023-02-08T17:30:52;0.90;95.50
12870;DHT22;6503;48.572;13.460;2023-02-08T17:33:32;0.60;95.70
12870;DHT22;6503;48.572;13.460;2023-02-08T17:36:05;0.50;95.80
12870;DHT22;6503;48.572;13.460;2023-02-08T17:38:38;0.50;94.90
12870;DHT22;6503;48.572;13.460;2023-02-08T17:41:12;0.50;96.10
12870;DHT22;6503;48.572;13.460;2023-02-08T17:43:41;0.50;97.80
12870;DHT22;6503;48.572;13.460;2023-02-08T17:46:14;0.50;99.90
12870;DHT22;6503;48.572;13.460;2023-02-08T17:48:46;0.50;96.50
12870;DHT22;6503;48.572;13.460;2023-02-08T17:51:17;0.40;96.80
12870;DHT22;6503;48.572;13.460;2023-02-08T17:53:53;0.40;99.10
12870;DHT22;6503;48.572;13.460;2023-02-08T17:56:27;0.40;99.90
12870;DHT22;6503;48.572;13.460;2023-02-08T17:59:03;0.30;99.90
12870;DHT22;6503;48.572;13.460;2023-02-08T18:01:35;0.30;99.90
12870;DHT22;6503;48.572;13.460;2023-02-08T18:04:06;0.20;99.90
12870;DHT22;6503;48.572;13.460;2023-02-08T18:06:39;0.20;99.90
12870;DHT22;6503;48.572;13.460;2023-02-08T18:09:12;0.30;99.90
12870;DHT22;6503;48.572;13.460;2023-02-08T18:11:42;0.20;99.90
12870;DHT22;6503;48.572;13.460;2023-02-08T18:14:12;0.10;99.90
12870;DHT22;6503;48.572;13.460;2023-02-08T18:16:43;0.10;99.90
12870;DHT22;6503;48.572;13.460;2023-02-08T18:22:13;0.20;99.90
12870;DHT22;6503;48.572;13.460;2023-02-08T18:27:45;0.10;99.90
12870;DHT22;6503;48.572;13.460;2023-02-08T18:30:21;0.10;99.90
12870;DHT22;6503;48.572;13.460;2023-02-08T18:32:54;0.10;99.90
12870;DHT22;6503;48.572;13.460;2023-02-08T18:35:24;0.20;99.90
12870;DHT22;6503;48.572;13.460;2023-02-08T18:38:08;0.00;99.90
12870;DHT22;6503;48.572;13.460;2023-02-08T18:40:43;0.00;99.90
12870;DHT22;6503;48.572;13.460;2023-02-08T18:43:19;0.00;99.90
12870;DHT22;6503;48.572;13.460;2023-02-08T18:46:03;0.00;99.90
12870;DHT22;6503;48.572;13.460;2023-02-08T18:48:47;0.00;99.90
12870;DHT22;6503;48.572;13.460;2023-02-08T18:51:25;0.00;99.90
12870;DHT22;6503;48.572;13.460;2023-02-08T18:53:57;-0.10;99.90
12870;DHT22;6503;48.572;13.460;2023-02-08T18:56:28;-0.10;99.90
12870;DHT22;6503;48.572;13.460;2023-02-08T18:59:13;-0.10;99.90
12870;DHT22;6503;48.572;13.460;2023-02-08T19:01:41;0.00;99.90
12870;DHT22;6503;48.572;13.460;2023-02-08T19:04:12;-0.10;99.90
12870;DHT22;6503;48.572;13.460;2023-02-08T19:06:50;-0.10;99.90
12870;DHT22;6503;48.572;13.460;2023-02-08T19:09:28;-0.10;99.90
12870;DHT22;6503;48.572;13.460;2023-02-08T19:12:01;-0.10;99.90
12870;DHT22;6503;48.572;13.460;2023-02-08T19:14:58;-0.10;99.90
12870;DHT22;6503;48.572;13.460;2023-02-08T19:17:42;-0.10;99.90
12870;DHT22;6503;48.572;13.460;2023-02-08T19:20:24;-0.20;99.90
12870;DHT22;6503;48.572;13.460;2023-02-08T19:22:55;-0.20;99.90
12870;DHT22;6503;48.572;13.460;2023-02-08T19:25:26;-0.10;99.90
12870;DHT22;6503;48.572;13.460;2023-02-08T19:27:58;-0.20;99.90
12870;DHT22;6503;48.572;13.460;2023-02-08T19:30:37;-0.20;99.90
12870;DHT22;6503;48.572;13.460;2023-02-08T19:33:06;-0.30;99.90
12870;DHT22;6503;48.572;13.460;2023-02-08T19:35:38;-0.30;99.90